Kalama, Washington
Current Conditions -  °F | °C
As of 6:55 PM on Tuesday 21 Oct 2014 (Local Time) from KKLS Reporting Station
Overcast Overcast  
Wind Chill: 15°   Ceiling: 7000
Heat Index: 15°   Visibility: 10mi
Dew Point:   Wind: 12mph
Humidity: 67%   Direction: 150°SSE
Pressure: 29.92"   Gusts: 16mph
Location:  46.01°N, 122.84°W
Report Text: KKLS 220155Z AUTO 15010G14KT 10SM FEW026 FEW031 OVC070 15/09 A2992 RMK AO1
Loading
Personal Weather Stations






























Interactive Weather Map
Tropical Storm Tracking
New forecast layout! Learn more

10-Day Weather Forecast

Advertisements
Track Severe Weather on mobile